Brevik Bridge — VRHY7 — position and weather

sailwx.info

Track history (hours):
 
Tides and Currents Weather Stations Pressure Air Temp Water Temp Dewpoint Dewpoint Depression Visibility Wind Speed Wind Dir Waves Ship Positions

Brevik Bridge

Last reported at 2016-May-26 14:22 UTC. Time now 2016-May-26 20:22 UTC.
Position N 30°25' E 122°45'.

Length 268 m; draft 11.3 m.

Type: Ship (hazmat cat D). MMSI: 477866200.

Date/timePositionNaut miles runAvg speedWind from/ knotsBaromVisibWave heightAir tempDewpointWater temp
2016-May-26 14:22N 30°25' E 122°45'8 9.1
2016-May-26 13:32N 30°21' E 122°52'48913.2
2016-May-25 00:20N 22°38' E 119°53'  
2016-May-21 04:18N 01°16' E 104°13'1317.2
2016-May-21 03:33N 01°14' E 104°00'1313.0
2016-May-21 02:33N 01°13' E 103°47'4 3.9
2016-May-21 01:29N 01°17' E 103°46'0 0.0
2016-May-21 00:32N 01°17' E 103°46'0 0.0
2016-May-20 23:32N 01°17' E 103°46'0 0.0
2016-May-20 22:32N 01°17' E 103°46'0 0.0
2016-May-20 21:32N 01°17' E 103°46'0 0.0
2016-May-20 20:32N 01°17' E 103°46'0 0.0
2016-May-20 19:29N 01°17' E 103°46'0 0.0
2016-May-20 18:23N 01°17' E 103°46'0 0.0
2016-May-20 17:32N 01°17' E 103°46'0 0.0
2016-May-20 16:26N 01°17' E 103°46'0 0.0
2016-May-20 15:32N 01°17' E 103°46'0 0.0
2016-May-20 14:29N 01°17' E 103°46'0 0.0
2016-May-20 13:32N 01°17' E 103°46'0 0.0
2016-May-20 12:32N 01°17' E 103°46'0 0.0
2016-May-20 11:29N 01°17' E 103°46'0 0.0
2016-May-20 10:29N 01°17' E 103°46'0 0.0
2016-May-20 09:32N 01°17' E 103°46'0 0.0
2016-May-20 08:32N 01°17' E 103°46'0 0.0
2016-May-20 07:32N 01°17' E 103°46'0 0.0
2016-May-20 06:32N 01°17' E 103°46'0 0.0
2016-May-20 04:29N 01°17' E 103°46'0 0.0
2016-May-20 03:29N 01°17' E 103°46'0 0.0
2016-May-20 02:29N 01°17' E 103°46'1 1.4
2016-May-20 01:33N 01°16' E 103°46'1010.2
2016-May-20 00:33N 01°13' E 103°36'6 5.8
2016-May-19 23:33N 01°11' E 103°30'5 5.2
2016-May-19 22:33N 01°12' E 103°25'4314.1
2016-May-19 19:33N 01°37' E 102°51'1514.6
2016-May-19 18:33N 01°44' E 102°38'1514.6
2016-May-19 17:33N 01°49' E 102°24'1514.3
2016-May-19 16:32N 01°57' E 102°12'  
Track history (hours):
 
Tides and Currents Weather Stations Pressure Air Temp Water Temp Dewpoint Dewpoint Depression Visibility Wind Speed Wind Dir Waves Ship Positions

Brevik Bridge

Last reported at 2016-May-26 14:22 UTC. Time now 2016-May-26 20:22 UTC.
Position N 30°25' E 122°45'.

Length 268 m; draft 11.3 m.

Type: Ship (hazmat cat D). MMSI: 477866200.

Date/timePositionNaut miles runAvg speedWind from/ knotsBaromVisibWave heightAir tempDewpointWater temp
2016-May-26 14:22N 30°25' E 122°45'8 9.1
2016-May-26 13:32N 30°21' E 122°52'48913.2
2016-May-25 00:20N 22°38' E 119°53'  
2016-May-21 04:18N 01°16' E 104°13'1317.2
2016-May-21 03:33N 01°14' E 104°00'1313.0
2016-May-21 02:33N 01°13' E 103°47'4 3.9
2016-May-21 01:29N 01°17' E 103°46'0 0.0
2016-May-21 00:32N 01°17' E 103°46'0 0.0
2016-May-20 23:32N 01°17' E 103°46'0 0.0
2016-May-20 22:32N 01°17' E 103°46'0 0.0
2016-May-20 21:32N 01°17' E 103°46'0 0.0
2016-May-20 20:32N 01°17' E 103°46'0 0.0
2016-May-20 19:29N 01°17' E 103°46'0 0.0
2016-May-20 18:23N 01°17' E 103°46'0 0.0
2016-May-20 17:32N 01°17' E 103°46'0 0.0
2016-May-20 16:26N 01°17' E 103°46'0 0.0
2016-May-20 15:32N 01°17' E 103°46'0 0.0
2016-May-20 14:29N 01°17' E 103°46'0 0.0
2016-May-20 13:32N 01°17' E 103°46'0 0.0
2016-May-20 12:32N 01°17' E 103°46'0 0.0
2016-May-20 11:29N 01°17' E 103°46'0 0.0
2016-May-20 10:29N 01°17' E 103°46'0 0.0
2016-May-20 09:32N 01°17' E 103°46'0 0.0
2016-May-20 08:32N 01°17' E 103°46'0 0.0
2016-May-20 07:32N 01°17' E 103°46'0 0.0
2016-May-20 06:32N 01°17' E 103°46'0 0.0
2016-May-20 04:29N 01°17' E 103°46'0 0.0
2016-May-20 03:29N 01°17' E 103°46'0 0.0
2016-May-20 02:29N 01°17' E 103°46'1 1.4
2016-May-20 01:33N 01°16' E 103°46'1010.2
2016-May-20 00:33N 01°13' E 103°36'6 5.8
2016-May-19 23:33N 01°11' E 103°30'5 5.2
2016-May-19 22:33N 01°12' E 103°25'4314.1
2016-May-19 19:33N 01°37' E 102°51'1514.6
2016-May-19 18:33N 01°44' E 102°38'1514.6
2016-May-19 17:33N 01°49' E 102°24'1514.3
2016-May-19 16:32N 01°57' E 102°12'  

Dump ship's entire track history